Time;durP1;ratioP1;P1;durP2;ratioP2;P2;SDS_P1;SDS_P2;PMS_P1;PMS_P2;Temp;Humidity;BMP_temperature;BMP_pressure;BME280_temperature;BME280_humidity;BME280_pressure;Samples;Min_cycle;Max_cycle;Signal;HPM_P1;HPM_P2
2022/12/11 00:01:59;;;;;;;0.20;0.20;;;;;;;-2.02;100.00;95864.59;4994536;28;20046;-75
2022/12/11 00:04:45;;;;;;;0.20;0.20;;;;;;;-1.97;100.00;95883.19;4993709;28;20052;-74
2022/12/11 00:07:31;;;;;;;0.20;0.20;;;;;;;-1.99;100.00;95882.56;4993690;28;20038;-75
2022/12/11 00:10:17;;;;;;;0.20;0.20;;;;;;;-2.05;100.00;95883.31;4993510;28;20210;-74
2022/12/11 00:13:03;;;;;;;0.20;0.20;;;;;;;-2.08;100.00;95884.50;4993937;28;20090;-73
2022/12/11 00:15:49;;;;;;;0.20;0.20;;;;;;;-2.09;100.00;95876.81;4995614;28;20388;-74
2022/12/11 00:18:35;;;;;;;0.20;0.20;;;;;;;-2.12;100.00;95874.53;4993614;28;20133;-75
2022/12/11 00:21:21;;;;;;;0.22;0.22;;;;;;;-2.06;100.00;95879.88;4995106;28;20041;-73
2022/12/11 00:24:07;;;;;;;0.20;0.20;;;;;;;-2.06;100.00;95877.25;4999897;28;20046;-74
2022/12/11 00:26:53;;;;;;;0.30;0.30;;;;;;;-2.12;100.00;95877.97;4994269;28;20486;-74
2022/12/11 00:29:39;;;;;;;0.30;0.30;;;;;;;-2.13;100.00;95880.78;4993162;28;20050;-75
2022/12/11 00:32:25;;;;;;;0.32;0.22;;;;;;;-2.07;100.00;95882.69;4996326;28;20104;-75
2022/12/11 00:35:11;;;;;;;0.22;0.22;;;;;;;-2.07;100.00;95883.50;4995132;28;20481;-75
2022/12/11 00:37:57;;;;;;;0.45;0.32;;;;;;;-2.01;100.00;95889.81;4994030;28;20130;-74
2022/12/11 00:40:43;;;;;;;0.30;0.30;;;;;;;-2.01;100.00;95882.75;4995780;28;20334;-74
2022/12/11 00:43:29;;;;;;;0.20;0.20;;;;;;;-2.04;100.00;95883.13;4990544;28;20053;-75
2022/12/11 00:46:16;;;;;;;0.20;0.20;;;;;;;-1.99;100.00;95882.56;4993600;28;20041;-75
2022/12/11 00:49:02;;;;;;;0.20;0.20;;;;;;;-1.99;100.00;95883.38;4993025;28;20053;-74
2022/12/11 00:51:48;;;;;;;0.28;0.25;;;;;;;-2.14;100.00;95881.78;4994377;28;20512;-75
2022/12/11 00:54:34;;;;;;;0.28;0.28;;;;;;;-2.05;100.00;95886.75;4993715;28;20589;-75
2022/12/11 00:57:20;;;;;;;0.20;0.20;;;;;;;-2.05;100.00;95883.31;4991391;28;20119;-74
2022/12/11 01:00:06;;;;;;;0.43;0.30;;;;;;;-2.10;100.00;95872.53;4996103;28;20141;-75
2022/12/11 01:02:52;;;;;;;0.20;0.20;;;;;;;-2.12;100.00;95880.59;4997370;28;20380;-76
2022/12/11 01:05:38;;;;;;;0.30;0.30;;;;;;;-2.29;100.00;95884.41;4993538;28;20049;-76
2022/12/11 01:08:24;;;;;;;0.20;0.20;;;;;;;-2.18;100.00;95888.38;4992065;28;20041;-76
2022/12/11 01:11:14;;;;;;;0.30;0.30;;;;;;;-2.38;100.00;95890.75;4993612;28;20528;-75
2022/12/11 01:13:59;;;;;;;0.20;0.20;;;;;;;-2.29;100.00;95887.03;4991076;28;20123;-75
2022/12/11 01:16:45;;;;;;;0.35;0.28;;;;;;;-2.25;100.00;95886.50;4995679;28;20400;-75
2022/12/11 01:19:32;;;;;;;0.20;0.20;;;;;;;-2.10;100.00;95889.13;4991600;28;20414;-75
2022/12/11 01:22:17;;;;;;;0.35;0.30;;;;;;;-2.10;100.00;95888.28;4993288;28;20038;-74
2022/12/11 01:25:04;;;;;;;0.40;0.30;;;;;;;-2.18;100.00;95881.31;4995497;28;20058;-75
2022/12/11 01:27:51;;;;;;;0.20;0.20;;;;;;;-2.25;100.00;95883.88;4993856;28;20151;-74
2022/12/11 01:30:41;;;;;;;0.38;0.30;;;;;;;-2.27;100.00;95882.41;4995072;28;20076;-75
2022/12/11 01:33:28;;;;;;;0.20;0.20;;;;;;;-2.18;100.00;95883.94;4994607;28;20429;-74
2022/12/11 01:36:19;;;;;;;0.17;0.17;;;;;;;-2.07;100.00;95883.50;4994299;28;20599;-75
2022/12/11 01:39:05;;;;;;;0.25;0.25;;;;;;;-2.12;100.00;95880.59;4992994;28;20052;-75
2022/12/11 01:41:59;;;;;;;0.20;0.20;;;;;;;-2.19;100.00;95889.38;4991658;28;20046;-73
2022/12/11 01:44:45;;;;;;;0.30;0.30;;;;;;;-2.19;100.00;95884.13;4995399;28;20056;-74
2022/12/11 01:47:31;;;;;;;0.20;0.20;;;;;;;-2.20;100.00;95872.03;4993004;28;20429;-75
2022/12/11 01:50:17;;;;;;;0.20;0.20;;;;;;;-2.26;100.00;95878.81;4990348;28;20096;-74
2022/12/11 01:53:07;;;;;;;0.38;0.32;;;;;;;-2.30;100.00;95877.56;5000580;28;20096;-75
2022/12/11 01:55:56;;;;;;;0.30;0.30;;;;;;;-2.31;100.00;95870.69;5014097;28;20037;-74
2022/12/11 01:58:52;;;;;;;0.22;0.22;;;;;;;-2.22;100.00;95881.88;5011211;28;20408;-76
2022/12/11 02:01:43;;;;;;;0.20;0.20;;;;;;;-2.33;100.00;95870.06;5011794;28;20041;-76
2022/12/11 02:04:36;;;;;;;0.20;0.20;;;;;;;-2.24;100.00;95874.22;5010746;28;20261;-74
2022/12/11 02:07:22;;;;;;;0.30;0.30;;;;;;;-2.34;100.00;95877.09;5009101;28;20481;-76
2022/12/11 02:10:10;;;;;;;0.90;0.40;;;;;;;-2.26;100.00;95877.03;5012104;28;20541;-76
2022/12/11 02:13:05;;;;;;;0.45;0.30;;;;;;;-2.15;100.00;95874.91;5013935;28;20056;-76
2022/12/11 02:16:05;;;;;;;1.50;0.68;;;;;;;-2.12;100.00;95870.09;5012082;28;20044;-74
2022/12/11 02:18:57;;;;;;;0.20;0.20;;;;;;;-2.17;100.00;95869.88;5011842;28;20041;-75
2022/12/11 02:21:51;;;;;;;0.60;0.30;;;;;;;-2.16;100.00;95863.63;5003149;28;20667;-77
2022/12/11 02:24:59;;;;;;;0.43;0.30;;;;;;;-2.18;100.00;95870.84;5008754;28;20497;-75
2022/12/11 02:27:55;;;;;;;0.30;0.30;;;;;;;-2.15;100.00;95862.63;5009286;28;20046;-74
2022/12/11 02:30:45;;;;;;;0.43;0.30;;;;;;;-2.11;100.00;95863.06;4998012;28;20053;-74
2022/12/11 02:33:42;;;;;;;0.50;0.40;;;;;;;-2.14;100.00;95866.06;5008545;28;20541;-74
2022/12/11 02:36:32;;;;;;;0.57;0.40;;;;;;;-2.10;100.00;95862.91;5004027;28;20148;-73
2022/12/11 02:39:21;;;;;;;0.32;0.30;;;;;;;-2.16;100.00;95868.88;5011678;28;20045;-73
2022/12/11 02:42:08;;;;;;;0.63;0.43;;;;;;;-2.22;100.00;95872.22;5012487;28;20128;-72
2022/12/11 02:44:56;;;;;;;0.30;0.30;;;;;;;-2.31;100.00;95874.13;5010755;28;20353;-74
2022/12/11 02:47:45;;;;;;;0.50;0.40;;;;;;;-2.38;100.00;95878.47;5012018;28;20786;-73
2022/12/11 02:50:32;;;;;;;0.45;0.35;;;;;;;-2.37;100.00;95877.47;5010782;28;20195;-74
2022/12/11 02:53:24;;;;;;;1.17;0.68;;;;;;;-2.31;100.00;95874.13;4999617;28;20058;-76
2022/12/11 02:56:21;;;;;;;0.50;0.35;;;;;;;-2.32;100.00;95863.84;5012951;28;20072;-74
2022/12/11 02:59:14;;;;;;;0.90;0.52;;;;;;;-2.33;100.00;95873.50;5009763;28;20050;-76
2022/12/11 03:02:02;;;;;;;1.00;0.60;;;;;;;-2.33;100.00;95872.69;5010113;28;20425;-74
2022/12/11 03:04:48;;;;;;;0.70;0.40;;;;;;;-2.32;100.00;95869.88;5009514;28;20061;-74
2022/12/11 03:07:37;;;;;;;0.38;0.30;;;;;;;-2.35;100.00;95870.22;5010887;28;20254;-76
2022/12/11 03:10:24;;;;;;;0.20;0.20;;;;;;;-2.36;100.00;95858.13;5008971;28;20639;-76
2022/12/11 03:13:12;;;;;;;0.30;0.30;;;;;;;-2.55;100.00;95851.66;5010501;28;20068;-75
2022/12/11 03:16:20;;;;;;;0.40;0.40;;;;;;;-2.70;100.00;95850.03;5011302;28;20421;-74
2022/12/11 03:19:12;;;;;;;0.35;0.30;;;;;;;-2.68;100.00;95854.06;4999174;28;20123;-76
2022/12/11 03:22:07;;;;;;;0.30;0.30;;;;;;;-2.47;100.00;95839.44;5011433;28;20043;-76
2022/12/11 03:25:00;;;;;;;0.35;0.30;;;;;;;-2.39;100.00;95849.84;5010070;28;20063;-76
2022/12/11 03:28:07;;;;;;;0.20;0.20;;;;;;;-2.23;100.00;95852.25;5012644;28;20152;-75
2022/12/11 03:30:55;;;;;;;0.40;0.30;;;;;;;-2.17;100.00;95854.13;5011963;28;20285;-75
2022/12/11 03:33:46;;;;;;;0.20;0.20;;;;;;;-2.49;100.00;95857.97;5008177;28;20258;-75
2022/12/11 03:36:36;;;;;;;0.30;0.30;;;;;;;-2.36;100.00;95857.31;5015804;28;20049;-75
2022/12/11 03:39:31;;;;;;;0.20;0.20;;;;;;;-2.34;100.00;95850.06;5013348;28;20140;-74
2022/12/11 03:42:20;;;;;;;0.20;0.20;;;;;;;-2.30;100.00;95843.50;5015271;28;20045;-74
2022/12/11 03:45:07;;;;;;;0.50;0.32;;;;;;;-2.23;100.00;95862.72;5014709;28;20616;-74
2022/12/11 03:47:58;;;;;;;0.43;0.30;;;;;;;-2.38;100.00;95864.56;5003525;28;20322;-75
2022/12/11 03:50:45;;;;;;;0.25;0.25;;;;;;;-2.34;100.00;95868.41;5012996;28;20075;-75
2022/12/11 03:53:34;;;;;;;0.20;0.20;;;;;;;-2.26;100.00;95860.47;5012363;28;20829;-75
2022/12/11 03:56:22;;;;;;;0.20;0.20;;;;;;;-2.30;100.00;95853.97;5012983;28;20318;-77
2022/12/11 03:59:08;;;;;;;0.22;0.22;;;;;;;-2.30;100.00;95861.84;5014224;28;20946;-74
2022/12/11 04:01:54;;;;;;;0.30;0.30;;;;;;;-2.27;100.00;95851.78;5012730;28;20334;-76
2022/12/11 04:04:41;;;;;;;0.20;0.20;;;;;;;-2.34;100.00;95845.66;5013587;28;20049;-74
2022/12/11 04:07:27;;;;;;;0.25;0.25;;;;;;;-2.26;100.00;95848.19;5002839;28;20037;-76
2022/12/11 04:10:13;;;;;;;0.40;0.30;;;;;;;-2.19;100.00;95853.50;5013354;28;20087;-76
2022/12/11 04:12:59;;;;;;;0.22;0.22;;;;;;;-2.16;100.00;95850.50;5014964;28;20541;-76
2022/12/11 04:15:45;;;;;;;0.38;0.30;;;;;;;-2.13;100.00;95852.75;5013965;28;20418;-74
2022/12/11 04:24:41;;;;;;;0.30;0.30;;;;;;;-2.12;100.00;95843.88;4995900;28;20383;-74
2022/12/11 04:30:32;;;;;;;0.30;0.30;;;;;;;-2.12;100.00;95854.38;5012085;28;20103;-76
2022/12/11 04:33:18;;;;;;;0.30;0.30;;;;;;;-2.11;100.00;95853.38;5012645;28;20518;-74
2022/12/11 04:36:04;;;;;;;0.85;0.50;;;;;;;-2.06;100.00;95861.53;5012198;28;20135;-76
2022/12/11 04:38:50;;;;;;;0.20;0.20;;;;;;;-2.11;100.00;95856.00;4998641;28;20045;-74
2022/12/11 04:41:37;;;;;;;0.20;0.20;;;;;;;-2.14;100.00;95859.00;5014365;28;20553;-75
2022/12/11 04:44:23;;;;;;;0.30;0.30;;;;;;;-2.15;100.00;95852.13;5000964;28;20415;-76
2022/12/11 04:47:09;;;;;;;0.20;0.20;;;;;;;-2.21;100.00;95852.88;5013255;28;20252;-75
2022/12/11 04:49:55;;;;;;;0.28;0.20;;;;;;;-2.09;100.00;95850.59;5005436;28;20063;-74
2022/12/11 04:52:41;;;;;;;0.35;0.30;;;;;;;-2.03;100.00;95845.41;5012899;28;20073;-73
2022/12/11 04:55:27;;;;;;;0.38;0.30;;;;;;;-2.03;100.00;95844.59;5013217;28;20070;-74
2022/12/11 04:58:13;;;;;;;0.35;0.30;;;;;;;-2.00;100.00;95842.44;5014138;28;20139;-75
2022/12/11 05:00:59;;;;;;;0.45;0.30;;;;;;;-1.89;100.00;95845.56;5012926;28;20769;-74
2022/12/11 05:03:45;;;;;;;0.55;0.38;;;;;;;-1.86;100.00;95851.25;5013153;28;20033;-73
2022/12/11 05:06:33;;;;;;;0.30;0.30;;;;;;;-1.85;100.00;95850.25;5015053;28;20037;-74
2022/12/11 05:09:20;;;;;;;0.43;0.38;;;;;;;-1.89;100.00;95837.69;5012116;28;20096;-75
2022/12/11 05:12:06;;;;;;;0.57;0.35;;;;;;;-1.83;100.00;95847.44;5001344;28;20639;-74
2022/12/11 05:14:52;;;;;;;1.02;0.50;;;;;;;-1.82;100.00;95844.63;5015407;28;20052;-73
2022/12/11 05:17:38;;;;;;;0.20;0.20;;;;;;;-1.83;100.00;95848.25;5014958;28;20037;-74
2022/12/11 05:20:24;;;;;;;0.43;0.30;;;;;;;-1.75;100.00;95845.50;5013544;28;20118;-75
2022/12/11 05:23:10;;;;;;;0.88;0.45;;;;;;;-1.75;100.00;95835.03;5010598;28;20044;-74
2022/12/11 05:25:58;;;;;;;0.20;0.20;;;;;;;-1.87;100.00;95839.13;5001650;28;20037;-75
2022/12/11 05:28:45;;;;;;;0.60;0.40;;;;;;;-1.96;100.00;95838.44;5008823;28;20071;-75
2022/12/11 05:31:31;;;;;;;0.52;0.30;;;;;;;-1.96;100.00;95832.38;5012890;28;20045;-75
2022/12/11 05:34:16;;;;;;;0.30;0.30;;;;;;;-1.96;100.00;95830.56;5011631;28;20041;-72
2022/12/11 05:37:02;;;;;;;0.20;0.20;;;;;;;-2.00;100.00;95833.75;5010471;28;20045;-74
2022/12/11 05:39:48;;;;;;;0.30;0.30;;;;;;;-1.92;100.00;95828.41;5001706;28;20036;-74
2022/12/11 05:42:34;;;;;;;0.20;0.20;;;;;;;-1.87;100.00;95826.00;5011894;28;20272;-74
2022/12/11 05:45:20;;;;;;;0.32;0.30;;;;;;;-1.88;100.00;95827.00;5016012;28;20906;-73
2022/12/11 05:48:06;;;;;;;0.20;0.20;;;;;;;-1.91;100.00;95829.19;5013985;28;20044;-75
2022/12/11 05:50:57;;;;;;;0.20;0.20;;;;;;;-1.98;100.00;95829.94;5015635;28;20045;-74
2022/12/11 05:53:44;;;;;;;0.20;0.20;;;;;;;-1.97;100.00;95828.13;4997709;28;20315;-73
2022/12/11 05:56:32;;;;;;;0.63;0.40;;;;;;;-1.91;100.00;95826.56;5014864;28;20318;-75
2022/12/11 05:59:18;;;;;;;0.22;0.22;;;;;;;-1.81;100.00;95822.63;5012034;28;20049;-73
2022/12/11 06:02:04;;;;;;;0.22;0.22;;;;;;;-1.79;100.00;95823.28;5013616;28;20048;-73
2022/12/11 06:04:50;;;;;;;0.20;0.20;;;;;;;-1.79;100.00;95823.28;5012969;28;20073;-73
2022/12/11 06:07:36;;;;;;;0.20;0.20;;;;;;;-1.76;100.00;95824.72;5011792;28;20691;-73
2022/12/11 06:10:22;;;;;;;0.15;0.15;;;;;;;-1.80;100.00;95820.84;4999818;28;20047;-74
2022/12/11 06:13:08;;;;;;;0.20;0.20;;;;;;;-1.78;100.00;95831.97;5012611;28;20053;-74
2022/12/11 06:15:54;;;;;;;0.20;0.20;;;;;;;-1.77;100.00;95820.47;5014427;28;20704;-74
2022/12/11 06:18:42;;;;;;;0.20;0.20;;;;;;;-1.74;100.00;95814.84;5008822;28;20424;-75
2022/12/11 06:21:33;;;;;;;0.20;0.20;;;;;;;-1.77;100.00;95812.59;5012206;28;20444;-76
2022/12/11 06:24:18;;;;;;;0.20;0.20;;;;;;;-1.74;100.00;95804.34;5009988;28;20041;-75
2022/12/11 06:27:04;;;;;;;0.20;0.20;;;;;;;-1.70;100.00;95803.00;5011992;28;20041;-75
2022/12/11 06:29:50;;;;;;;0.20;0.20;;;;;;;-1.76;100.00;95796.66;5011122;28;20075;-76
2022/12/11 06:32:36;;;;;;;0.20;0.20;;;;;;;-1.82;100.00;95797.41;5008577;28;20037;-74
2022/12/11 06:35:22;;;;;;;0.20;0.20;;;;;;;-1.91;100.00;95803.78;5010579;28;20396;-76
2022/12/11 06:38:09;;;;;;;0.20;0.20;;;;;;;-1.80;100.00;95805.91;5011562;28;20045;-75
2022/12/11 06:40:56;;;;;;;0.20;0.20;;;;;;;-1.70;100.00;95801.19;5013664;28;20698;-75
2022/12/11 06:43:42;;;;;;;0.20;0.20;;;;;;;-1.66;100.00;95801.59;5012941;28;20132;-75
2022/12/11 06:46:28;;;;;;;0.20;0.20;;;;;;;-1.67;100.00;95802.59;5012704;28;20069;-73
2022/12/11 06:49:14;;;;;;;0.20;0.20;;;;;;;-1.63;100.00;95803.03;5000077;28;20080;-77
2022/12/11 06:52:00;;;;;;;0.20;0.20;;;;;;;-1.66;100.00;95803.41;5010315;28;20041;-77
2022/12/11 06:54:46;;;;;;;0.20;0.20;;;;;;;-1.66;100.00;95812.09;5010464;28;20246;-75
2022/12/11 06:57:33;;;;;;;0.20;0.20;;;;;;;-1.69;100.00;95802.00;5011891;28;20037;-76
2022/12/11 07:00:19;;;;;;;0.20;0.20;;;;;;;-1.66;100.00;95804.22;4998569;28;20084;-73
2022/12/11 07:03:05;;;;;;;0.20;0.20;;;;;;;-1.62;100.00;95807.28;5013303;28;20132;-75
2022/12/11 07:05:51;;;;;;;0.20;0.20;;;;;;;-1.60;100.00;95807.91;5008319;28;20734;-76
2022/12/11 07:08:36;;;;;;;0.20;0.20;;;;;;;-1.63;100.00;95814.34;5011938;28;20128;-76
2022/12/11 07:11:23;;;;;;;0.20;0.20;;;;;;;-1.64;100.00;95815.34;5017161;28;20053;-76
2022/12/11 07:14:10;;;;;;;0.20;0.20;;;;;;;-1.81;100.00;95811.34;5002429;28;20041;-75
2022/12/11 07:16:56;;;;;;;0.20;0.20;;;;;;;-1.83;100.00;95815.97;5014926;28;20049;-75
2022/12/11 07:19:43;;;;;;;0.20;0.20;;;;;;;-1.69;100.00;95823.78;5016725;28;20442;-76
2022/12/11 07:22:29;;;;;;;0.20;0.20;;;;;;;-1.66;100.00;95817.34;5014666;28;20042;-76
2022/12/11 07:25:15;;;;;;;0.20;0.20;;;;;;;-1.63;100.00;95819.59;5015687;28;20045;-74
2022/12/11 07:28:01;;;;;;;0.20;0.20;;;;;;;-1.62;100.00;95823.84;5018014;28;20339;-73
2022/12/11 07:30:47;;;;;;;0.20;0.20;;;;;;;-1.58;100.00;95819.84;5003960;28;20045;-75
2022/12/11 07:33:33;;;;;;;0.20;0.20;;;;;;;-1.54;100.00;95831.59;5002138;28;20042;-75
2022/12/11 07:36:19;;;;;;;0.20;0.20;;;;;;;-1.60;100.00;95816.59;5017559;28;20040;-75
2022/12/11 07:39:06;;;;;;;0.20;0.20;;;;;;;-1.62;100.00;95818.59;5001952;28;20034;-74
2022/12/11 07:41:52;;;;;;;0.20;0.20;;;;;;;-1.57;100.00;95818.03;5002226;28;20045;-75
2022/12/11 07:44:38;;;;;;;0.20;0.20;;;;;;;-1.51;100.00;95822.53;5000063;28;20041;-73
2022/12/11 07:47:24;;;;;;;0.20;0.20;;;;;;;-1.49;100.00;95816.06;5014998;28;20371;-76
2022/12/11 07:50:10;;;;;;;0.17;0.17;;;;;;;-1.47;100.00;95816.72;5014990;28;20052;-74
2022/12/11 07:52:56;;;;;;;0.20;0.20;;;;;;;-1.49;100.00;95818.69;5012451;28;20127;-75
2022/12/11 07:55:41;;;;;;;0.20;0.20;;;;;;;-1.43;100.00;95807.44;4998625;28;20213;-76
2022/12/11 07:58:28;;;;;;;0.20;0.20;;;;;;;-1.38;100.00;95809.53;4318567;28;10000092;-74
2022/12/11 08:01:20;;;;;;;0.20;0.20;;;;;;;-1.33;100.00;95816.81;5012627;28;20668;-74
2022/12/11 08:04:07;;;;;;;0.20;0.20;;;;;;;-1.33;100.00;95816.81;5011616;28;20049;-73
2022/12/11 08:06:53;;;;;;;0.20;0.20;;;;;;;-1.58;100.00;95821.66;5014866;28;20271;-74
2022/12/11 08:09:41;;;;;;;0.20;0.20;;;;;;;-1.45;100.00;95813.91;5015076;28;20042;-74
2022/12/11 08:12:27;;;;;;;0.20;0.20;;;;;;;-1.32;100.00;95818.44;5015866;28;20124;-74
2022/12/11 08:15:13;;;;;;;0.17;0.17;;;;;;;-1.25;100.00;95819.28;5018249;28;20049;-74
2022/12/11 08:17:59;;;;;;;0.20;0.20;;;;;;;-1.16;100.00;95828.69;5027179;28;20049;-76
2022/12/11 08:20:45;;;;;;;0.20;0.20;;;;;;;-1.19;100.00;95831.66;5033672;28;20432;-75
2022/12/11 08:23:30;;;;;;;0.20;0.20;;;;;;;-1.19;100.00;95835.09;5033290;28;20388;-75
2022/12/11 08:26:20;;;;;;;0.20;0.20;;;;;;;-1.17;100.00;95825.25;5020857;28;20044;-76
2022/12/11 08:29:06;;;;;;;0.20;0.20;;;;;;;-1.19;100.00;95832.47;5021620;28;20456;-74
2022/12/11 08:31:52;;;;;;;0.20;0.20;;;;;;;-1.14;100.00;95832.72;5019164;28;20049;-73
2022/12/11 08:34:38;;;;;;;0.20;0.20;;;;;;;-1.18;100.00;95820.16;5014636;28;20186;-74
2022/12/11 08:37:24;;;;;;;0.20;0.20;;;;;;;-1.42;100.00;95814.31;5014411;28;20037;-75
2022/12/11 08:40:11;;;;;;;0.20;0.20;;;;;;;-1.27;100.00;95831.81;5013413;28;20132;-75
2022/12/11 08:42:57;;;;;;;0.20;0.20;;;;;;;-1.13;100.00;95838.78;5011489;28;20046;-75
2022/12/11 08:45:43;;;;;;;0.20;0.20;;;;;;;-1.10;100.00;95835.78;5000467;28;20044;-73
2022/12/11 08:48:29;;;;;;;0.20;0.20;;;;;;;-1.43;100.00;95841.56;5014003;28;20479;-74
2022/12/11 08:51:17;;;;;;;0.20;0.20;;;;;;;-1.66;100.00;95838.31;5012161;28;20045;-74
2022/12/11 08:54:03;;;;;;;0.20;0.20;;;;;;;-1.48;100.00;95833.47;5013156;28;20040;-76
2022/12/11 08:56:49;;;;;;;0.20;0.20;;;;;;;-1.52;100.00;95826.16;5007103;28;20159;-76
2022/12/11 08:59:35;;;;;;;0.20;0.20;;;;;;;-1.62;100.00;95838.78;5014200;28;20041;-76
2022/12/11 09:02:21;;;;;;;0.20;0.20;;;;;;;-1.69;100.00;95834.28;5011721;28;20041;-75
2022/12/11 09:05:08;;;;;;;0.20;0.20;;;;;;;-1.62;100.00;95838.78;5013378;28;24638;-76
2022/12/11 09:07:54;;;;;;;0.20;0.20;;;;;;;-1.46;100.00;95838.53;5012895;28;20042;-75
2022/12/11 09:10:40;;;;;;;0.17;0.17;;;;;;;-1.23;100.00;95839.13;5013937;28;20072;-74
2022/12/11 09:13:25;;;;;;;0.10;0.10;;;;;;;-1.33;100.00;95832.56;5011344;28;20037;-74
2022/12/11 09:16:14;;;;;;;0.20;0.20;;;;;;;-1.32;100.00;95818.44;4997183;28;20501;-74
2022/12/11 09:19:00;;;;;;;0.20;0.20;;;;;;;-1.23;100.00;95836.50;5014555;28;20029;-74
2022/12/11 09:21:47;;;;;;;0.20;0.20;;;;;;;-1.13;100.00;95833.53;5013304;28;20236;-73
2022/12/11 09:24:33;;;;;;;0.20;0.20;;;;;;;-0.98;100.00;95831.63;5015767;28;20069;-75
2022/12/11 09:27:20;;;;;;;0.20;0.20;;;;;;;-0.94;100.00;95834.66;5014085;28;20049;-74
2022/12/11 09:30:07;;;;;;;0.20;0.20;;;;;;;-1.00;100.00;95822.34;5013157;28;20146;-74
2022/12/11 09:32:53;;;;;;;0.20;0.20;;;;;;;-1.21;100.00;95826.63;5029139;28;20059;-75
2022/12/11 09:35:39;;;;;;;0.20;0.20;;;;;;;-1.05;100.00;95829.97;5033856;28;20133;-74
2022/12/11 09:38:25;;;;;;;0.20;0.20;;;;;;;-0.92;100.00;95833.50;5031257;28;20087;-75
2022/12/11 09:41:36;;;;;;;0.20;0.20;;;;;;;-0.80;100.00;95822.44;5020054;28;20928;-74
2022/12/11 09:44:36;;;;;;;0.20;0.20;;;;;;;-0.74;100.00;95829.56;5032163;28;20296;-75
2022/12/11 09:47:48;;;;;;;0.20;0.20;;;;;;;-0.76;100.00;95823.69;5032542;28;20276;-74
2022/12/11 09:50:35;;;;;;;0.20;0.20;;;;;;;-0.67;100.00;95822.53;5033239;28;20121;-74
2022/12/11 09:53:28;;;;;;;0.20;0.20;;;;;;;-0.63;100.00;95823.75;5034358;28;20053;-74
2022/12/11 09:56:23;;;;;;;0.20;0.20;;;;;;;-0.59;100.00;95825.81;5023027;28;21249;-75
2022/12/11 09:59:43;;;;;;;0.20;0.20;;;;;;;-0.68;100.00;95820.91;5032533;28;20140;-74
2022/12/11 10:02:38;;;;;;;0.20;0.20;;;;;;;-0.62;100.00;95818.31;5032889;28;20119;-75
2022/12/11 10:05:49;;;;;;;0.22;0.22;;;;;;;-0.54;100.00;95816.50;5034337;28;20083;-74
2022/12/11 10:08:51;;;;;;;0.20;0.20;;;;;;;-0.49;100.00;95811.50;5032384;28;20642;-75
2022/12/11 10:11:39;;;;;;;0.20;0.20;;;;;;;-0.43;100.00;95808.91;5034448;28;20326;-75
2022/12/11 10:14:41;;;;;;;0.20;0.20;;;;;;;-0.28;100.00;95809.56;5035153;28;20558;-74
2022/12/11 10:17:32;;;;;;;0.20;0.20;;;;;;;-0.25;100.00;95805.72;5034358;28;20538;-75
2022/12/11 10:20:27;;;;;;;0.20;0.20;;;;;;;-0.56;100.00;95804.38;5033924;28;20147;-75
2022/12/11 10:23:39;;;;;;;0.20;0.20;;;;;;;-0.77;100.00;95798.44;5031308;28;20091;-75
2022/12/11 10:26:27;;;;;;;0.20;0.20;;;;;;;-0.67;100.00;95788.38;5033634;28;20041;-76
2022/12/11 10:29:15;;;;;;;0.20;0.20;;;;;;;-0.52;100.00;95804.81;5033723;28;20536;-75
2022/12/11 10:32:02;;;;;;;0.20;0.20;;;;;;;-0.64;100.00;95801.91;5028834;28;20037;-75
2022/12/11 10:34:56;;;;;;;0.20;0.20;;;;;;;-0.81;100.00;95799.81;5032108;28;20481;-75
2022/12/11 10:37:42;;;;;;;0.20;0.20;;;;;;;-1.09;100.00;95792.75;5031802;28;20084;-76
2022/12/11 10:40:29;;;;;;;0.20;0.20;;;;;;;-1.18;100.00;95786.84;5034370;28;20040;-75
2022/12/11 10:43:16;;;;;;;0.20;0.20;;;;;;;-0.94;100.00;95787.41;5029646;28;20036;-75
2022/12/11 10:46:04;;;;;;;0.20;0.20;;;;;;;-0.96;100.00;95782.34;5030551;28;20522;-75
2022/12/11 10:48:59;;;;;;;0.20;0.20;;;;;;;-0.96;100.00;95782.34;5032237;28;20739;-73
2022/12/11 10:51:44;;;;;;;0.20;0.20;;;;;;;-0.81;100.00;95778.78;5031372;28;20225;-74
2022/12/11 10:54:43;;;;;;;0.20;0.20;;;;;;;-1.03;100.00;95783.31;5019808;28;20167;-75
2022/12/11 10:57:34;;;;;;;0.20;0.20;;;;;;;-1.34;100.00;95784.50;5032924;28;20436;-75
2022/12/11 11:00:38;;;;;;;0.20;0.20;;;;;;;-1.25;100.00;95783.34;5034605;28;20033;-75
2022/12/11 11:03:28;;;;;;;0.20;0.20;;;;;;;-1.38;100.00;95771.97;5030609;28;20545;-76
2022/12/11 11:06:19;;;;;;;0.20;0.20;;;;;;;-1.55;100.00;95772.25;5031441;28;20056;-75
2022/12/11 11:09:34;;;;;;;0.30;0.30;;;;;;;-1.43;100.00;95768.09;5032984;28;20266;-75
2022/12/11 11:12:25;;;;;;;0.20;0.20;;;;;;;-1.52;100.00;95766.59;5033536;28;20484;-73
2022/12/11 11:15:18;;;;;;;0.20;0.20;;;;;;;-1.29;100.00;95768.19;5033151;28;20041;-74
2022/12/11 11:18:24;;;;;;;0.30;0.30;;;;;;;-1.51;100.00;95770.84;5030646;28;20043;-75
2022/12/11 11:21:18;;;;;;;0.30;0.30;;;;;;;-1.86;100.00;95777.00;5022149;28;20485;-74
2022/12/11 11:24:04;;;;;;;0.50;0.30;;;;;;;-1.92;100.00;95767.25;5034428;28;20178;-74
2022/12/11 11:26:50;;;;;;;0.20;0.20;;;;;;;-1.97;100.00;95771.25;5033329;28;20045;-74
2022/12/11 11:29:36;;;;;;;0.20;0.20;;;;;;;-1.87;100.00;95767.50;5034182;28;20044;-74
2022/12/11 11:32:33;;;;;;;0.43;0.30;;;;;;;-1.75;100.00;95763.38;5022886;28;20370;-72
2022/12/11 11:35:24;;;;;;;0.20;0.20;;;;;;;-1.76;100.00;95769.63;5020751;28;20087;-76
2022/12/11 11:38:25;;;;;;;0.20;0.20;;;;;;;-1.65;100.00;95757.81;5020660;28;20435;-73
2022/12/11 11:41:16;;;;;;;0.30;0.30;;;;;;;-1.72;100.00;95744.63;5031674;28;20067;-75
2022/12/11 11:44:10;;;;;;;0.28;0.28;;;;;;;-1.89;100.00;95759.00;5032528;28;20049;-76
2022/12/11 11:47:07;;;;;;;0.20;0.20;;;;;;;-2.13;100.00;95757.56;5030912;28;20297;-76
2022/12/11 11:50:06;;;;;;;0.20;0.20;;;;;;;-2.12;100.00;95743.47;5031786;28;20432;-74
2022/12/11 11:53:11;;;;;;;0.20;0.20;;;;;;;-2.01;100.00;95754.28;5030753;28;20110;-75
2022/12/11 11:56:15;;;;;;;0.20;0.20;;;;;;;-1.73;100.00;95748.25;5032577;28;20306;-75
2022/12/11 11:59:04;;;;;;;0.30;0.30;;;;;;;-1.86;100.00;95748.97;5036499;28;20043;-75
2022/12/11 12:01:54;;;;;;;0.20;0.20;;;;;;;-1.82;100.00;95744.16;5035677;28;20056;-77
2022/12/11 12:04:41;;;;;;;0.20;0.20;;;;;;;-1.78;100.00;95740.16;5038368;28;20365;-75
2022/12/11 12:07:30;;;;;;;0.30;0.30;;;;;;;-1.57;100.00;95742.72;5035883;28;20491;-75
2022/12/11 12:10:26;;;;;;;0.20;0.20;;;;;;;-1.74;100.00;95730.91;5038265;28;20322;-76
2022/12/11 12:13:25;;;;;;;0.40;0.30;;;;;;;-1.71;100.00;95746.28;5035766;28;20075;-73
2022/12/11 12:16:36;;;;;;;0.20;0.20;;;;;;;-1.93;100.00;95748.09;5028803;28;20423;-74
2022/12/11 12:19:37;;;;;;;0.32;0.30;;;;;;;-1.79;100.00;95751.63;5037638;28;21031;-72
2022/12/11 12:22:32;;;;;;;0.20;0.20;;;;;;;-1.54;100.00;95737.13;5033750;28;20044;-72
2022/12/11 12:25:24;;;;;;;0.30;0.30;;;;;;;-1.27;100.00;95742.56;5037392;28;20818;-73
2022/12/11 12:28:13;;;;;;;0.22;0.22;;;;;;;-1.07;100.00;95740.88;5036713;28;20825;-74
2022/12/11 12:31:08;;;;;;;0.20;0.20;;;;;;;-0.94;100.00;95735.66;5037431;28;20071;-71
2022/12/11 12:33:56;;;;;;;0.20;0.20;;;;;;;-0.99;100.00;95724.97;5028285;28;20048;-73
2022/12/11 12:36:59;;;;;;;0.20;0.20;;;;;;;-1.06;100.00;95731.19;5034806;28;20048;-74
2022/12/11 12:40:14;;;;;;;0.20;0.20;;;;;;;-0.90;100.00;95726.41;5022957;28;20493;-74
2022/12/11 12:43:31;;;;;;;0.20;0.20;;;;;;;-1.28;100.00;95735.69;5031634;28;20106;-76
2022/12/11 12:46:19;;;;;;;0.20;0.20;;;;;;;-1.38;100.00;95732.59;5031527;28;20122;-75
2022/12/11 12:49:11;;;;;;;0.20;0.20;;;;;;;-1.10;100.00;95724.69;5021916;28;20037;-76
2022/12/11 12:51:58;;;;;;;0.20;0.20;;;;;;;-1.24;100.00;95718.56;5032369;28;20036;-76
2022/12/11 12:58:04;;;;;;;0.20;0.20;;;;;;;-1.15;100.00;95712.16;5035327;28;20298;-75
2022/12/11 13:00:50;;;;;;;0.20;0.20;;;;;;;-1.23;100.00;95712.28;5035119;28;20052;-75
2022/12/11 13:03:58;;;;;;;0.20;0.20;;;;;;;-1.24;100.00;95713.31;5033777;28;20049;-76
2022/12/11 13:06:46;;;;;;;0.20;0.20;;;;;;;-1.49;100.00;95712.91;5032808;28;20041;-73
2022/12/11 13:09:31;;;;;;;0.20;0.20;;;;;;;-1.45;100.00;95714.16;5034377;28;20545;-74
2022/12/11 13:12:31;;;;;;;0.20;0.20;;;;;;;-1.28;100.00;95719.94;5029692;28;20072;-76
2022/12/11 13:15:23;;;;;;;0.20;0.20;;;;;;;-1.33;100.00;95717.06;5021507;28;20535;-76
2022/12/11 13:18:35;;;;;;;0.20;0.20;;;;;;;-1.18;100.00;95723.81;5032814;28;20056;-75
2022/12/11 13:21:37;;;;;;;0.20;0.20;;;;;;;-1.35;100.00;95719.06;5035327;28;20484;-74